KSNS

Salinas Municipal Airport

Salinas, California, USA
KSNS 191733Z 1918/2018 12012KT 5SM FU HZ FEW012 BKN200 FM192100 29008KT 6SM FU HZ FEW015 BKN200 FM200300 VRB03KT 6SM FU HZ FEW011 BKN200 FM201200 11006KT 5SM FU HZ SCT007 BKN200
Issued Valid From Valid To
Nov-19 @ 17:33 UTC
(5 hours ago)
Nov-19 @ 18:00 UTC
(5 hours ago)
Nov-20 @ 18:00 UTC
(in 19 hours)
Expired Click to View Nov-19 @ 18:00 to Nov-19 @ 21:00
KSNS 191733Z 1918/2018 12012KT 5SM FU HZ FEW012 BKN200
Wind Visibility Clouds Conditions
120° at 12 knots 5 miles
  • Few at 1,200' AGL
  • Broken at 20,000' AGL
  • Smoke
  • Haze
From Nov-19 @ 21:00 to Nov-20 @ 03:00
FM192100 29008KT 6SM FU HZ FEW015 BKN200
Wind Visibility Clouds Conditions
290° at 8 knots 6 miles
  • Few at 1,500' AGL
  • Broken at 20,000' AGL
  • Smoke
  • Haze
From Nov-20 @ 03:00 to Nov-20 @ 12:00
FM200300 VRB03KT 6SM FU HZ FEW011 BKN200
Wind Visibility Clouds Conditions
Variable at 3 knots 6 miles
  • Few at 1,100' AGL
  • Broken at 20,000' AGL
  • Smoke
  • Haze
From Nov-20 @ 12:00 to Nov-20 @ 18:00
FM201200 11006KT 5SM FU HZ SCT007 BKN200
Wind Visibility Clouds Conditions
110° at 6 knots 5 miles
  • Scattered at 700' AGL
  • Broken at 20,000' AGL
  • Smoke
  • Haze
KSNS 191733Z 1918/2018 12012KT 5SM FU HZ FEW012 BKN200 FM192100 29008KT 6SM FU HZ FEW015 BKN200 FM200300 VRB03KT 6SM FU HZ FEW011 BKN200 FM201200 11006KT 5SM FU HZ SCT007 BKN200
Issued Nov-19 @ 17:33 UTC
(5 hours ago)
Valid From Nov-19 @ 18:00 UTC
(5 hours ago)
Valid To Nov-20 @ 18:00 UTC
(in 19 hours)
Nov-19 @ 18:00 - Nov-19 @ 21:00
Wind Visibility
120° at 12 knots 5 miles
Clouds
  • Few at 1,200' AGL
  • Broken at 20,000' AGL
Conditions
  • Smoke
  • Haze
From Nov-19 @ 21:00 - Nov-20 @ 03:00
Wind Visibility
290° at 8 knots 6 miles
Clouds
  • Few at 1,500' AGL
  • Broken at 20,000' AGL
Conditions
  • Smoke
  • Haze
From Nov-20 @ 03:00 - Nov-20 @ 12:00
Wind Visibility
Variable at 3 knots 6 miles
Clouds
  • Few at 1,100' AGL
  • Broken at 20,000' AGL
Conditions
  • Smoke
  • Haze
From Nov-20 @ 12:00 - Nov-20 @ 18:00
Wind Visibility
110° at 6 knots 5 miles
Clouds
  • Scattered at 700' AGL
  • Broken at 20,000' AGL
Conditions
  • Smoke
  • Haze